createdAt,value
2022-11-05T00:02:24.465Z,11.77
2022-11-05T00:05:09.601Z,11.77
2022-11-05T00:08:09.224Z,11.74
2022-11-05T00:10:38.126Z,11.86
2022-11-05T00:13:27.342Z,11.84
2022-11-05T00:16:13.103Z,11.76
2022-11-05T00:18:39.972Z,11.87
2022-11-05T00:21:26.762Z,11.82
2022-11-05T00:24:11.800Z,11.88
2022-11-05T00:26:38.585Z,11.87
2022-11-05T00:29:05.431Z,11.85
2022-11-05T00:31:32.663Z,11.84
2022-11-05T00:33:59.442Z,11.83
2022-11-05T00:36:26.234Z,11.84
2022-11-05T00:38:53.057Z,11.84
2022-11-05T00:41:19.833Z,11.82
2022-11-05T00:44:05.259Z,11.86
2022-11-05T00:46:32.187Z,11.81
2022-11-05T00:49:17.995Z,11.86
2022-11-05T00:51:44.778Z,11.74
2022-11-05T00:54:11.587Z,11.81
2022-11-05T00:56:38.390Z,11.85
2022-11-05T00:59:05.268Z,11.86
2022-11-05T01:01:32.100Z,11.85
2022-11-05T01:03:58.974Z,11.81
2022-11-05T01:06:25.755Z,11.89
2022-11-05T01:08:52.552Z,11.89
2022-11-05T01:11:36.933Z,11.87
2022-11-05T01:14:11.259Z,11.88
2022-11-05T01:16:39.525Z,11.84
2022-11-05T01:19:09.963Z,11.89
2022-11-05T01:21:37.377Z,11.86
2022-11-05T01:24:04.701Z,11.85
2022-11-05T01:26:31.565Z,11.85
2022-11-05T01:29:01.978Z,11.90
2022-11-05T01:31:29.140Z,11.87
2022-11-05T01:33:56.059Z,11.89
2022-11-05T01:36:22.831Z,11.85
2022-11-05T01:38:49.680Z,11.85
2022-11-05T01:41:16.439Z,11.80
2022-11-05T01:43:54.861Z,11.85
2022-11-05T01:46:34.115Z,11.85
2022-11-05T01:49:15.862Z,11.85
2022-11-05T01:51:44.713Z,11.83
2022-11-05T01:54:16.676Z,11.68
2022-11-05T01:57:04.817Z,11.84
2022-11-05T01:59:43.833Z,11.74
2022-11-05T02:02:11.065Z,11.90
2022-11-05T02:04:50.787Z,11.87
2022-11-05T02:07:18.693Z,11.84
2022-11-05T02:10:02.772Z,11.83
2022-11-05T02:12:30.825Z,11.87
2022-11-05T02:14:58.509Z,11.85
2022-11-05T02:18:17.687Z,11.85
2022-11-05T02:21:15.169Z,11.81
2022-11-05T02:24:08.180Z,11.85
2022-11-05T02:27:01.829Z,11.84
2022-11-05T02:30:07.696Z,11.83
2022-11-05T02:33:10.476Z,11.83
2022-11-05T02:36:17.276Z,11.87
2022-11-05T02:39:47.417Z,11.86
2022-11-05T02:42:48.609Z,11.79
2022-11-05T02:46:06.084Z,11.84
2022-11-05T02:49:18.012Z,11.84
2022-11-05T02:51:58.140Z,11.83
2022-11-05T02:54:54.971Z,11.83
2022-11-05T02:57:22.902Z,11.76
2022-11-05T02:59:59.501Z,11.81
2022-11-05T03:02:26.400Z,11.74
2022-11-05T03:04:53.390Z,11.72
2022-11-05T03:07:44.920Z,11.76
2022-11-05T03:10:43.292Z,11.79
2022-11-05T03:13:21.616Z,11.81
2022-11-05T03:16:00.214Z,11.77
2022-11-05T03:18:59.688Z,11.79
2022-11-05T03:21:57.964Z,11.80
2022-11-05T03:24:30.958Z,11.80
2022-11-05T03:27:04.935Z,11.79
2022-11-05T03:29:47.681Z,11.76
2022-11-05T03:32:17.468Z,11.79
2022-11-05T03:34:52.256Z,11.76
2022-11-05T03:37:22.591Z,11.84
2022-11-05T03:39:54.362Z,11.84
2022-11-05T03:42:27.090Z,11.86
2022-11-05T03:45:00.430Z,11.86
2022-11-05T03:47:37.291Z,11.79
2022-11-05T03:50:18.510Z,11.82
2022-11-05T03:53:00.789Z,11.79
2022-11-05T03:56:01.216Z,11.82
2022-11-05T03:58:29.633Z,11.82
2022-11-05T04:00:59.689Z,11.79
2022-11-05T04:03:26.485Z,11.75
2022-11-05T04:06:14.787Z,11.80
2022-11-05T04:08:59.875Z,11.73
2022-11-05T04:11:45.307Z,11.72
2022-11-05T04:14:12.216Z,11.76
2022-11-05T04:16:57.469Z,11.74
2022-11-05T04:19:42.713Z,11.73
2022-11-05T04:22:27.830Z,11.73
2022-11-05T04:24:54.684Z,11.71
2022-11-05T04:27:21.473Z,11.78
2022-11-05T04:30:06.888Z,11.77
2022-11-05T04:32:33.708Z,11.73
2022-11-05T04:35:00.511Z,11.75
2022-11-05T04:37:27.392Z,11.69
2022-11-05T04:39:54.232Z,11.76
2022-11-05T04:42:21.029Z,11.67
2022-11-05T04:44:47.820Z,11.54
2022-11-05T04:47:14.586Z,11.68
2022-11-05T04:49:41.394Z,11.69
2022-11-05T04:52:08.199Z,11.64
2022-11-05T04:54:34.962Z,11.65
2022-11-05T04:57:01.811Z,11.68
2022-11-05T04:59:28.591Z,11.64
2022-11-05T05:01:55.450Z,11.65
2022-11-05T05:04:22.351Z,11.67
2022-11-05T05:06:49.175Z,11.63
2022-11-05T05:09:16.073Z,11.63
2022-11-05T05:11:42.880Z,11.59
2022-11-05T05:14:09.710Z,11.66
2022-11-05T05:16:36.493Z,11.49
2022-11-05T05:19:03.309Z,11.72
2022-11-05T05:21:38.883Z,11.68
2022-11-05T05:24:17.014Z,11.65
2022-11-05T05:26:47.399Z,11.67
2022-11-05T05:29:14.382Z,11.72
2022-11-05T05:31:41.924Z,11.61
2022-11-05T05:34:12.652Z,11.63
2022-11-05T05:36:39.497Z,11.62
2022-11-05T05:39:08.323Z,11.66
2022-11-05T05:41:35.095Z,11.63
2022-11-05T05:44:01.882Z,11.57
2022-11-05T05:46:28.698Z,11.60
2022-11-05T05:48:55.567Z,11.58
2022-11-05T05:51:22.348Z,11.59
2022-11-05T05:53:49.957Z,11.55
2022-11-05T05:56:19.310Z,11.63
2022-11-05T05:58:46.783Z,11.54
2022-11-05T06:01:19.248Z,11.59
2022-11-05T06:03:48.306Z,11.62
2022-11-05T06:06:19.955Z,11.66
2022-11-05T06:08:47.601Z,11.64
2022-11-05T06:11:14.815Z,11.55
2022-11-05T06:13:41.618Z,11.64
2022-11-05T06:16:10.136Z,11.64
2022-11-05T06:18:37.643Z,11.63
2022-11-05T06:21:09.734Z,11.62
2022-11-05T06:23:38.852Z,11.57
2022-11-05T06:26:10.302Z,11.59
2022-11-05T06:28:37.694Z,11.64
2022-11-05T06:31:05.764Z,11.55
2022-11-05T06:33:32.566Z,11.59
2022-11-05T06:36:04.045Z,11.60
2022-11-05T06:38:34.071Z,11.57
2022-11-05T06:41:07.264Z,11.60
2022-11-05T06:43:35.873Z,11.57
2022-11-05T06:46:03.130Z,11.65
2022-11-05T06:48:30.142Z,11.54
2022-11-05T06:50:57.014Z,11.61
2022-11-05T06:53:23.919Z,11.65
2022-11-05T06:55:50.707Z,11.61
2022-11-05T06:58:17.552Z,11.67
2022-11-05T07:00:44.454Z,11.62
2022-11-05T07:03:12.665Z,11.63
2022-11-05T07:05:48.172Z,11.62
2022-11-05T07:08:15.518Z,11.58
2022-11-05T07:10:42.337Z,11.66
2022-11-05T07:13:09.387Z,11.63
2022-11-05T07:15:37.346Z,11.64
2022-11-05T07:18:07.503Z,11.57
2022-11-05T07:20:35.286Z,11.64
2022-11-05T07:23:09.889Z,11.65
2022-11-05T07:25:37.258Z,11.62
2022-11-05T07:28:05.077Z,11.71
2022-11-05T07:30:33.706Z,11.69
2022-11-05T07:33:00.938Z,11.72
2022-11-05T07:35:28.112Z,11.67
2022-11-05T07:37:55.728Z,11.70
2022-11-05T07:40:25.215Z,11.73
2022-11-05T07:42:55.191Z,11.72
2022-11-05T07:45:22.781Z,11.78
2022-11-05T07:48:01.562Z,11.78
2022-11-05T07:50:32.860Z,11.81
2022-11-05T07:53:05.259Z,11.84
2022-11-05T07:55:32.797Z,11.76
2022-11-05T07:57:59.683Z,11.69
2022-11-05T08:00:28.110Z,11.69
2022-11-05T08:03:07.758Z,11.70
2022-11-05T08:05:38.707Z,11.74
2022-11-05T08:08:08.156Z,11.72
2022-11-05T08:10:36.390Z,11.57
2022-11-05T08:13:03.334Z,11.56
2022-11-05T08:15:30.339Z,11.55
2022-11-05T08:18:06.359Z,11.62
2022-11-05T08:20:34.959Z,11.69
2022-11-05T08:23:01.937Z,11.71
2022-11-05T08:25:28.935Z,11.77
2022-11-05T08:28:04.583Z,11.72
2022-11-05T08:30:32.565Z,11.71
2022-11-05T08:33:06.436Z,11.58
2022-11-05T08:35:35.480Z,11.68
2022-11-05T08:38:06.118Z,11.65
2022-11-05T08:40:35.747Z,11.65
2022-11-05T08:43:04.847Z,11.54
2022-11-05T08:45:32.898Z,11.58
2022-11-05T08:48:00.934Z,11.63
2022-11-05T08:50:28.094Z,11.62
2022-11-05T08:52:55.084Z,11.62
2022-11-05T08:55:22.264Z,11.59
2022-11-05T08:57:49.045Z,11.51
2022-11-05T09:00:16.305Z,11.40
2022-11-05T09:02:43.143Z,11.25
2022-11-05T09:05:10.042Z,11.26
2022-11-05T09:07:36.856Z,11.23
2022-11-05T09:10:03.917Z,11.22
2022-11-05T09:12:30.694Z,11.12
2022-11-05T09:14:57.603Z,11.15
2022-11-05T09:17:24.489Z,11.01
2022-11-05T09:19:51.362Z,10.99
2022-11-05T09:22:18.231Z,10.92
2022-11-05T09:24:45.046Z,11.07
2022-11-05T09:27:14.485Z,10.95
2022-11-05T09:29:42.049Z,10.87
2022-11-05T09:32:09.467Z,10.89
2022-11-05T09:34:36.479Z,10.76
2022-11-05T09:37:03.746Z,10.83
2022-11-05T09:39:30.689Z,10.81
2022-11-05T09:42:07.761Z,10.88
2022-11-05T09:45:09.710Z,10.90
2022-11-05T09:47:45.506Z,10.93
2022-11-05T09:50:23.004Z,10.86
2022-11-05T09:52:49.944Z,10.89
2022-11-05T09:55:42.819Z,11.03
2022-11-05T09:58:45.669Z,11.09
2022-11-05T10:01:21.337Z,10.95
2022-11-05T10:03:52.997Z,10.97
2022-11-05T10:06:25.796Z,11.05
2022-11-05T10:09:12.193Z,11.04
2022-11-05T10:11:48.527Z,11.14
2022-11-05T10:14:29.407Z,11.16
2022-11-05T10:17:22.368Z,11.08
2022-11-05T10:20:10.325Z,11.11
2022-11-05T10:22:38.515Z,11.14
2022-11-05T10:25:20.801Z,11.23
2022-11-05T10:27:58.571Z,11.18
2022-11-05T10:30:25.394Z,11.16
2022-11-05T10:32:56.967Z,11.26
2022-11-05T10:35:27.239Z,11.20
2022-11-05T10:37:54.076Z,11.23
2022-11-05T10:41:18.790Z,11.15
2022-11-05T10:43:51.526Z,11.04
2022-11-05T10:46:18.200Z,11.01
2022-11-05T10:49:05.154Z,10.98
2022-11-05T10:51:32.911Z,10.97
2022-11-05T10:54:13.933Z,10.89
2022-11-05T10:56:42.398Z,10.88
2022-11-05T10:59:26.170Z,10.95
2022-11-05T11:02:01.380Z,10.98
2022-11-05T11:04:36.529Z,10.97
2022-11-05T11:07:06.432Z,11.03
2022-11-05T11:09:36.788Z,11.05
2022-11-05T11:12:27.427Z,11.10
2022-11-05T11:15:14.638Z,11.06
2022-11-05T11:17:41.808Z,11.07
2022-11-05T11:20:30.609Z,11.03
2022-11-05T11:23:16.743Z,11.00
2022-11-05T11:25:52.745Z,11.00
2022-11-05T11:28:48.217Z,10.95
2022-11-05T11:31:21.949Z,10.98
2022-11-05T11:33:57.507Z,11.08
2022-11-05T11:36:41.353Z,11.09
2022-11-05T11:39:22.427Z,11.22
2022-11-05T11:41:54.659Z,11.30
2022-11-05T11:44:27.287Z,11.28
2022-11-05T11:47:01.056Z,11.34
2022-11-05T11:49:53.476Z,11.33
2022-11-05T11:52:31.983Z,11.45
2022-11-05T11:55:20.755Z,11.46
2022-11-05T11:58:05.929Z,11.50
2022-11-05T12:00:41.906Z,11.33
2022-11-05T12:03:58.633Z,11.46
2022-11-05T12:06:56.393Z,11.52
2022-11-05T12:09:52.692Z,11.52
2022-11-05T12:12:52.578Z,11.53
2022-11-05T12:15:51.885Z,11.41
2022-11-05T12:18:53.734Z,11.49
2022-11-05T12:21:58.165Z,11.39
2022-11-05T12:25:05.502Z,11.51
2022-11-05T12:27:41.403Z,11.48
2022-11-05T12:30:20.573Z,11.53
2022-11-05T12:33:23.776Z,11.59
2022-11-05T12:36:06.866Z,11.68
2022-11-05T12:38:52.159Z,11.73
2022-11-05T12:41:49.460Z,11.76
2022-11-05T12:44:53.409Z,11.82
2022-11-05T12:47:40.135Z,11.89
2022-11-05T12:50:35.854Z,11.92
2022-11-05T12:53:33.272Z,11.98
2022-11-05T12:56:23.181Z,11.97
2022-11-05T12:59:35.575Z,11.94
2022-11-05T13:02:20.760Z,11.98
2022-11-05T13:04:57.819Z,11.98
2022-11-05T13:07:32.042Z,12.03
2022-11-05T13:10:26.195Z,12.07
2022-11-05T13:13:23.565Z,12.08
2022-11-05T13:16:03.754Z,12.00
2022-11-05T13:18:43.579Z,12.14
2022-11-05T13:21:11.594Z,12.08
2022-11-05T13:23:47.872Z,12.12
2022-11-05T13:26:24.876Z,12.11
2022-11-05T13:29:05.793Z,12.14
2022-11-05T13:31:41.328Z,12.16
2022-11-05T13:34:12.577Z,12.16
2022-11-05T13:37:16.521Z,12.20
2022-11-05T13:39:55.303Z,12.19
2022-11-05T13:42:39.995Z,12.16
2022-11-05T13:46:08.593Z,12.09
2022-11-05T13:48:56.130Z,12.14
2022-11-05T13:51:57.094Z,12.21
2022-11-05T13:54:47.726Z,12.10
2022-11-05T13:57:54.522Z,12.01
2022-11-05T14:00:27.260Z,12.02
2022-11-05T14:02:59.924Z,12.09
2022-11-05T14:05:33.057Z,12.02
2022-11-05T14:08:08.605Z,12.10
2022-11-05T14:10:58.164Z,12.13
2022-11-05T14:13:38.750Z,12.05
2022-11-05T14:16:17.720Z,12.18
2022-11-05T14:19:13.565Z,12.14
2022-11-05T14:21:58.376Z,12.19
2022-11-05T14:24:39.753Z,12.19
2022-11-05T14:27:06.442Z,12.23
2022-11-05T14:29:53.487Z,12.22
2022-11-05T14:32:20.154Z,12.25
2022-11-05T14:35:00.929Z,12.24
2022-11-05T14:37:41.677Z,12.26
2022-11-05T14:40:42.548Z,12.26
2022-11-05T14:43:21.490Z,12.18
2022-11-05T14:46:08.403Z,12.27
2022-11-05T14:49:05.157Z,12.25
2022-11-05T14:51:45.716Z,12.23
2022-11-05T14:54:36.889Z,12.26
2022-11-05T14:57:03.997Z,12.31
2022-11-05T14:59:51.126Z,12.32
2022-11-05T15:02:23.006Z,12.31
2022-11-05T15:04:52.698Z,12.34
2022-11-05T15:07:22.168Z,12.32
2022-11-05T15:10:07.237Z,12.36
2022-11-05T15:12:37.159Z,12.36
2022-11-05T15:15:21.274Z,12.34
2022-11-05T15:18:16.639Z,12.29
2022-11-05T15:20:47.005Z,12.24
2022-11-05T15:23:21.387Z,12.19
2022-11-05T15:26:04.771Z,12.18
2022-11-05T15:28:46.595Z,12.26
2022-11-05T15:31:13.317Z,12.30
2022-11-05T15:33:47.557Z,12.27
2022-11-05T15:36:31.363Z,12.36
2022-11-05T15:41:46.909Z,12.36
2022-11-05T15:44:28.476Z,12.42
2022-11-05T15:47:16.157Z,12.43
2022-11-05T15:49:55.747Z,12.36
2022-11-05T15:52:34.623Z,12.44
2022-11-05T15:55:12.218Z,12.44
2022-11-05T15:57:49.397Z,12.42
2022-11-05T16:00:27.739Z,12.41
2022-11-05T16:03:00.908Z,12.32
2022-11-05T16:05:32.625Z,12.42
2022-11-05T16:08:01.371Z,12.43
2022-11-05T16:10:37.211Z,12.40
2022-11-05T16:13:39.584Z,12.43
2022-11-05T16:16:24.896Z,12.41
2022-11-05T16:18:52.736Z,12.36
2022-11-05T16:21:23.128Z,12.39
2022-11-05T16:23:49.921Z,12.37
2022-11-05T16:29:40.595Z,12.28
2022-11-05T16:32:28.549Z,12.34
2022-11-05T16:35:03.438Z,12.29
2022-11-05T16:37:45.219Z,12.33
2022-11-05T16:40:20.795Z,12.27
2022-11-05T16:42:51.280Z,12.34
2022-11-05T16:45:22.995Z,12.31
2022-11-05T16:47:50.657Z,12.30
2022-11-05T16:50:31.260Z,12.26
2022-11-05T16:52:58.325Z,12.23
2022-11-05T16:55:25.142Z,12.25
2022-11-05T16:57:54.685Z,12.25
2022-11-05T17:00:23.108Z,12.27
2022-11-05T17:02:51.001Z,12.24
2022-11-05T17:05:19.456Z,12.25
2022-11-05T17:07:47.067Z,12.26
2022-11-05T17:10:14.606Z,12.25
2022-11-05T17:12:42.816Z,12.21
2022-11-05T17:15:30.932Z,12.14
2022-11-05T17:17:59.333Z,12.14
2022-11-05T17:20:42.833Z,12.19
2022-11-05T17:23:13.756Z,12.03
2022-11-05T17:25:44.019Z,12.16
2022-11-05T17:28:11.371Z,12.07
2022-11-05T17:30:41.707Z,12.03
2022-11-05T17:33:12.817Z,12.01
2022-11-05T17:35:40.899Z,12.06
2022-11-05T17:38:08.884Z,12.06
2022-11-05T17:40:37.041Z,11.97
2022-11-05T17:43:04.787Z,11.94
2022-11-05T17:45:32.076Z,11.84
2022-11-05T17:47:59.080Z,11.81
2022-11-05T17:50:25.942Z,11.88
2022-11-05T17:52:52.784Z,11.86
2022-11-05T17:55:19.650Z,11.68
2022-11-05T17:57:52.243Z,11.75
2022-11-05T18:00:26.160Z,11.73
2022-11-05T18:02:55.146Z,11.68
2022-11-05T18:05:25.602Z,11.64
2022-11-05T18:07:55.679Z,11.65
2022-11-05T18:10:24.389Z,11.52
2022-11-05T18:12:53.118Z,11.50
2022-11-05T18:15:23.910Z,11.46
2022-11-05T18:17:52.412Z,11.42
2022-11-05T18:20:20.334Z,11.43
2022-11-05T18:22:50.339Z,11.26
2022-11-05T18:25:18.263Z,11.30
2022-11-05T18:27:45.327Z,11.24
2022-11-05T18:30:15.349Z,11.24
2022-11-05T18:32:43.929Z,11.24
2022-11-05T18:35:11.490Z,11.01
2022-11-05T18:37:39.063Z,11.09
2022-11-05T18:40:07.782Z,11.03
2022-11-05T18:42:34.621Z,11.01
2022-11-05T18:45:01.440Z,10.89
2022-11-05T18:47:28.207Z,10.88
2022-11-05T18:49:55.101Z,10.85
2022-11-05T18:52:21.993Z,10.85
2022-11-05T18:54:48.809Z,10.73
2022-11-05T18:57:15.868Z,10.74
2022-11-05T18:59:46.596Z,10.72
2022-11-05T19:02:14.558Z,10.65
2022-11-05T19:05:00.307Z,10.59
2022-11-05T19:07:29.243Z,10.59
2022-11-05T19:09:56.191Z,10.51
2022-11-05T19:12:23.064Z,10.47
2022-11-05T19:14:49.978Z,10.46
2022-11-05T19:17:16.869Z,10.40
2022-11-05T19:19:43.691Z,10.37
2022-11-05T19:22:10.678Z,10.30
2022-11-05T19:24:37.489Z,10.17
2022-11-05T19:27:04.432Z,10.22
2022-11-05T19:29:31.314Z,10.26
2022-11-05T19:31:58.134Z,10.24
2022-11-05T19:34:25.022Z,10.12
2022-11-05T19:36:51.895Z,10.05
2022-11-05T19:39:18.740Z,10.06
2022-11-05T19:41:45.618Z,10.05
2022-11-05T19:44:12.426Z,9.93
2022-11-05T19:46:39.212Z,9.94
2022-11-05T19:49:06.015Z,10.00
2022-11-05T19:51:33.311Z,9.93
2022-11-05T19:54:02.073Z,9.91
2022-11-05T19:56:32.819Z,9.83
2022-11-05T19:59:00.603Z,9.81
2022-11-05T20:01:31.160Z,9.77
2022-11-05T20:03:58.878Z,9.72
2022-11-05T20:06:35.140Z,9.74
2022-11-05T20:09:22.716Z,9.70
2022-11-05T20:11:54.385Z,9.68
2022-11-05T20:14:22.311Z,9.57
2022-11-05T20:16:49.498Z,9.63
2022-11-05T20:19:20.132Z,9.63
2022-11-05T20:21:47.289Z,9.64
2022-11-05T20:24:23.668Z,9.54
2022-11-05T20:26:55.798Z,9.58
2022-11-05T20:29:23.978Z,9.60
2022-11-05T20:31:52.522Z,9.58
2022-11-05T20:34:19.375Z,9.44
2022-11-05T20:36:46.219Z,9.53
2022-11-05T20:39:13.087Z,9.36
2022-11-05T20:41:39.986Z,9.43
2022-11-05T20:44:06.847Z,9.41
2022-11-05T20:46:33.784Z,9.47
2022-11-05T20:49:00.638Z,9.46
2022-11-05T20:51:27.538Z,9.45
2022-11-05T20:53:57.332Z,9.47
2022-11-05T20:56:31.707Z,9.47
2022-11-05T20:59:00.051Z,9.45
2022-11-05T21:01:30.497Z,9.37
2022-11-05T21:03:57.814Z,9.36
2022-11-05T21:06:24.597Z,9.27
2022-11-05T21:08:52.648Z,9.31
2022-11-05T21:11:20.391Z,9.33
2022-11-05T21:13:47.891Z,9.29
2022-11-05T21:16:18.579Z,9.29
2022-11-05T21:18:47.207Z,9.26
2022-11-05T21:21:19.950Z,9.31
2022-11-05T21:23:47.340Z,9.29
2022-11-05T21:26:16.732Z,9.31
2022-11-05T21:28:43.638Z,9.31
2022-11-05T21:31:11.082Z,9.22
2022-11-05T21:33:38.196Z,9.26
2022-11-05T21:36:11.649Z,9.26
2022-11-05T21:38:39.479Z,9.16
2022-11-05T21:41:08.303Z,9.24
2022-11-05T21:43:35.321Z,9.24
2022-11-05T21:46:04.168Z,9.23
2022-11-05T21:48:31.841Z,9.16
2022-11-05T21:51:16.989Z,9.09
2022-11-05T21:54:02.565Z,9.16
2022-11-05T21:56:47.768Z,9.13
2022-11-05T21:59:41.986Z,9.11
2022-11-05T22:02:11.923Z,9.19
2022-11-05T22:04:42.904Z,9.14
2022-11-05T22:07:13.718Z,9.20
2022-11-05T22:09:41.976Z,9.09
2022-11-05T22:12:09.326Z,9.09
2022-11-05T22:14:36.720Z,8.99
2022-11-05T22:17:04.410Z,9.08
2022-11-05T22:19:31.586Z,9.04
2022-11-05T22:21:58.462Z,9.04
2022-11-05T22:24:27.937Z,9.06
2022-11-05T22:26:54.785Z,9.04
2022-11-05T22:29:21.575Z,9.07
2022-11-05T22:31:48.553Z,8.96
2022-11-05T22:34:15.337Z,8.94
2022-11-05T22:36:42.308Z,9.05
2022-11-05T22:39:10.761Z,9.00
2022-11-05T22:41:37.736Z,8.92
2022-11-05T22:44:04.909Z,8.94
2022-11-05T22:46:35.158Z,8.86
2022-11-05T22:49:04.786Z,8.94
2022-11-05T22:51:35.177Z,8.87
2022-11-05T22:54:02.715Z,8.86
2022-11-05T22:56:33.342Z,8.83
2022-11-05T22:59:00.617Z,8.76
2022-11-05T23:01:28.394Z,8.81
2022-11-05T23:03:57.270Z,8.79
2022-11-05T23:06:48.991Z,8.79
2022-11-05T23:09:37.782Z,8.77
2022-11-05T23:12:27.627Z,8.75
2022-11-05T23:14:56.702Z,8.70
2022-11-05T23:17:43.470Z,8.69
2022-11-05T23:20:40.192Z,8.68
2022-11-05T23:23:29.997Z,8.57
2022-11-05T23:25:58.747Z,8.66
2022-11-05T23:28:26.377Z,8.64
2022-11-05T23:31:11.564Z,8.58
2022-11-05T23:33:38.356Z,8.58
2022-11-05T23:36:24.286Z,8.59
2022-11-05T23:38:54.361Z,8.58
2022-11-05T23:41:39.835Z,8.58
2022-11-05T23:44:27.269Z,8.47
2022-11-05T23:47:12.739Z,8.60
2022-11-05T23:49:39.533Z,8.58
2022-11-05T23:52:06.342Z,8.51
2022-11-05T23:54:33.137Z,8.51
2022-11-05T23:56:59.912Z,8.52
2022-11-05T23:59:26.686Z,8.51
